4XCYN LLMZ-LLBS
Flight info
| Callsign | 4XCYN |
|---|---|
| Flight time | 0h 30m |
| Altitude | 4000 |
| Route | MMORR ARRAD TARAD MYTAR SOKET OMMER NCITY |
| Aircraft | C172/L-SD/C |
Departure
| Time | 2026-05-06 19:26 |
|---|---|
| Airport | Bar Yehuda Airfield (LLMZ) |
Arrival
| Time | 2026-05-06 19:57 |
|---|---|
| Airport | Beersheba (Teyman) Airport (LLBS) |
| Time | Latitude | Longitude | Altitude | Speed | Heading |
|---|---|---|---|---|---|
| 2026-05-06 19:18 | 31.32994 | 35.38792 | -1234 ft | 0 kts | 102° |
| 2026-05-06 19:22 | 31.32959 | 35.38814 | -1239 ft | 9 kts | 174° |
| 2026-05-06 19:23 | 31.32942 | 35.38847 | -1241 ft | 2 kts | 96° |
| 2026-05-06 19:23 | 31.32942 | 35.38849 | -1241 ft | 0 kts | 97° |
| 2026-05-06 19:24 | 31.32970 | 35.38880 | -1241 ft | 12 kts | 7° |
| 2026-05-06 19:24 | 31.33039 | 35.38887 | -1240 ft | 17 kts | 4° |
| 2026-05-06 19:25 | 31.33169 | 35.38911 | -1238 ft | 19 kts | 11° |
| 2026-05-06 19:25 | 31.33321 | 35.38933 | -1236 ft | 12 kts | 340° |
| 2026-05-06 19:25 | 31.33347 | 35.38926 | -1235 ft | 4 kts | 11° |
| 2026-05-06 19:25 | 31.33325 | 35.38954 | -1236 ft | 11 kts | 187° |
| 2026-05-06 19:26 | 31.33210 | 35.38932 | -1237 ft | 46 kts | 188° |
| 2026-05-06 19:26 | 31.32550 | 35.38805 | -983 ft | 79 kts | 187° |
| 2026-05-06 19:26 | 31.32187 | 35.38756 | -782 ft | 81 kts | 185° |
| 2026-05-06 19:26 | 31.31609 | 35.38697 | -490 ft | 86 kts | 182° |
| 2026-05-06 19:27 | 31.31004 | 35.38664 | -213 ft | 90 kts | 181° |
| 2026-05-06 19:27 | 31.30384 | 35.38604 | 119 ft | 87 kts | 189° |
| 2026-05-06 19:27 | 31.29785 | 35.38463 | 417 ft | 87 kts | 191° |
| 2026-05-06 19:27 | 31.28994 | 35.38276 | 818 ft | 87 kts | 189° |
| 2026-05-06 19:28 | 31.28609 | 35.38208 | 1038 ft | 84 kts | 187° |
| 2026-05-06 19:28 | 31.28033 | 35.38108 | 1314 ft | 86 kts | 188° |
| 2026-05-06 19:28 | 31.27234 | 35.37948 | 1670 ft | 88 kts | 189° |
| 2026-05-06 19:28 | 31.26624 | 35.37811 | 1926 ft | 90 kts | 191° |
| 2026-05-06 19:29 | 31.26224 | 35.37724 | 2126 ft | 87 kts | 189° |
| 2026-05-06 19:29 | 31.25643 | 35.37622 | 2435 ft | 83 kts | 187° |
| 2026-05-06 19:29 | 31.24939 | 35.37673 | 2870 ft | 71 kts | 147° |
| 2026-05-06 19:29 | 31.24869 | 35.38184 | 3058 ft | 78 kts | 45° |
| 2026-05-06 19:30 | 31.25183 | 35.38356 | 3218 ft | 77 kts | 2° |
| 2026-05-06 19:30 | 31.25587 | 35.37808 | 3511 ft | 80 kts | 252° |
| 2026-05-06 19:30 | 31.25331 | 35.37516 | 3664 ft | 81 kts | 193° |
| 2026-05-06 19:30 | 31.24898 | 35.37827 | 3866 ft | 85 kts | 101° |
| 2026-05-06 19:31 | 31.25297 | 35.38516 | 4122 ft | 91 kts | 11° |
| 2026-05-06 19:31 | 31.25914 | 35.38250 | 4140 ft | 100 kts | 314° |
| 2026-05-06 19:31 | 31.26143 | 35.36761 | 4212 ft | 96 kts | 264° |
| 2026-05-06 19:32 | 31.26098 | 35.36239 | 4226 ft | 97 kts | 265° |
| 2026-05-06 19:32 | 31.26057 | 35.35455 | 4244 ft | 94 kts | 267° |
| 2026-05-06 19:32 | 31.26024 | 35.34696 | 4231 ft | 94 kts | 266° |
| 2026-05-06 19:32 | 31.25983 | 35.33910 | 4184 ft | 100 kts | 267° |
| 2026-05-06 19:33 | 31.25957 | 35.33100 | 4146 ft | 92 kts | 268° |
| 2026-05-06 19:33 | 31.25947 | 35.32350 | 4130 ft | 95 kts | 269° |
| 2026-05-06 19:33 | 31.25943 | 35.31565 | 4145 ft | 97 kts | 269° |
| 2026-05-06 19:33 | 31.25954 | 35.30540 | 4124 ft | 90 kts | 267° |
| 2026-05-06 19:34 | 31.25919 | 35.30054 | 4180 ft | 90 kts | 264° |
| 2026-05-06 19:34 | 31.25875 | 35.29305 | 4214 ft | 96 kts | 266° |
| 2026-05-06 19:34 | 31.25849 | 35.28520 | 4184 ft | 98 kts | 267° |
| 2026-05-06 19:34 | 31.25840 | 35.27746 | 4127 ft | 93 kts | 271° |
| 2026-05-06 19:35 | 31.25864 | 35.26978 | 4082 ft | 92 kts | 271° |
| 2026-05-06 19:35 | 31.25875 | 35.26226 | 4132 ft | 93 kts | 270° |
| 2026-05-06 19:35 | 31.25878 | 35.25465 | 4171 ft | 97 kts | 270° |
| 2026-05-06 19:35 | 31.25886 | 35.24449 | 4190 ft | 91 kts | 271° |
| 2026-05-06 19:36 | 31.25901 | 35.23940 | 4185 ft | 98 kts | 272° |
| 2026-05-06 19:36 | 31.25899 | 35.23166 | 4201 ft | 91 kts | 271° |
| 2026-05-06 19:36 | 31.26048 | 35.22256 | 4281 ft | 89 kts | 285° |
| 2026-05-06 19:36 | 31.26230 | 35.21512 | 4230 ft | 97 kts | 287° |
| 2026-05-06 19:37 | 31.26362 | 35.21008 | 4198 ft | 99 kts | 287° |
| 2026-05-06 19:37 | 31.26573 | 35.20259 | 4139 ft | 95 kts | 289° |
| 2026-05-06 19:37 | 31.26796 | 35.19539 | 4113 ft | 93 kts | 289° |
| 2026-05-06 19:37 | 31.27013 | 35.18818 | 4082 ft | 94 kts | 289° |
| 2026-05-06 19:38 | 31.27224 | 35.18096 | 4064 ft | 92 kts | 289° |
| 2026-05-06 19:38 | 31.27431 | 35.17389 | 4100 ft | 91 kts | 287° |
| 2026-05-06 19:38 | 31.27587 | 35.16666 | 4142 ft | 92 kts | 283° |
| 2026-05-06 19:38 | 31.27738 | 35.15936 | 4196 ft | 92 kts | 284° |
| 2026-05-06 19:39 | 31.27905 | 35.15178 | 4238 ft | 96 kts | 284° |
| 2026-05-06 19:39 | 31.28088 | 35.14463 | 4273 ft | 88 kts | 288° |
| 2026-05-06 19:39 | 31.28280 | 35.13774 | 4269 ft | 93 kts | 288° |
| 2026-05-06 19:39 | 31.28406 | 35.12778 | 4276 ft | 91 kts | 264° |
| 2026-05-06 19:40 | 31.28356 | 35.12284 | 4252 ft | 92 kts | 262° |
| 2026-05-06 19:40 | 31.28281 | 35.11519 | 4236 ft | 95 kts | 265° |
| 2026-05-06 19:40 | 31.28260 | 35.10754 | 4231 ft | 95 kts | 269° |
| 2026-05-06 19:40 | 31.28262 | 35.09976 | 4202 ft | 96 kts | 270° |
| 2026-05-06 19:41 | 31.28279 | 35.09190 | 4198 ft | 94 kts | 271° |
| 2026-05-06 19:41 | 31.28283 | 35.08430 | 4162 ft | 93 kts | 270° |
| 2026-05-06 19:41 | 31.28298 | 35.07664 | 4143 ft | 95 kts | 271° |
| 2026-05-06 19:41 | 31.28318 | 35.06883 | 4117 ft | 97 kts | 272° |
| 2026-05-06 19:42 | 31.28352 | 35.06093 | 4052 ft | 98 kts | 272° |
| 2026-05-06 19:42 | 31.28380 | 35.05313 | 4106 ft | 93 kts | 272° |
| 2026-05-06 19:42 | 31.28404 | 35.04553 | 4128 ft | 92 kts | 272° |
| 2026-05-06 19:42 | 31.28437 | 35.03803 | 4162 ft | 94 kts | 273° |
| 2026-05-06 19:43 | 31.28474 | 35.03030 | 4166 ft | 96 kts | 273° |
| 2026-05-06 19:43 | 31.28511 | 35.02240 | 4128 ft | 98 kts | 274° |
| 2026-05-06 19:43 | 31.28563 | 35.01461 | 4135 ft | 91 kts | 275° |
| 2026-05-06 19:43 | 31.28632 | 35.00711 | 4098 ft | 94 kts | 277° |
| 2026-05-06 19:44 | 31.28734 | 34.99938 | 4043 ft | 97 kts | 281° |
| 2026-05-06 19:44 | 31.28883 | 34.99200 | 4024 ft | 89 kts | 285° |
| 2026-05-06 19:44 | 31.29032 | 34.98468 | 3992 ft | 95 kts | 279° |
| 2026-05-06 19:44 | 31.29103 | 34.97683 | 3904 ft | 95 kts | 275° |
| 2026-05-06 19:45 | 31.29180 | 34.96927 | 3841 ft | 92 kts | 278° |
| 2026-05-06 19:45 | 31.29289 | 34.96207 | 3923 ft | 89 kts | 280° |
| 2026-05-06 19:45 | 31.29359 | 34.95452 | 4064 ft | 94 kts | 271° |
| 2026-05-06 19:45 | 31.29360 | 34.94692 | 4108 ft | 94 kts | 270° |
| 2026-05-06 19:46 | 31.29360 | 34.93913 | 4133 ft | 95 kts | 270° |
| 2026-05-06 19:46 | 31.29359 | 34.93145 | 4147 ft | 92 kts | 270° |
| 2026-05-06 19:46 | 31.29360 | 34.92404 | 4168 ft | 92 kts | 270° |
| 2026-05-06 19:46 | 31.29353 | 34.91643 | 4164 ft | 94 kts | 267° |
| 2026-05-06 19:47 | 31.29252 | 34.90594 | 4049 ft | 98 kts | 260° |
| 2026-05-06 19:47 | 31.29162 | 34.90076 | 3999 ft | 97 kts | 257° |
| 2026-05-06 19:47 | 31.29009 | 34.89351 | 3834 ft | 96 kts | 257° |
| 2026-05-06 19:47 | 31.28881 | 34.88586 | 3656 ft | 92 kts | 259° |
| 2026-05-06 19:48 | 31.28724 | 34.87813 | 3435 ft | 103 kts | 254° |
| 2026-05-06 19:48 | 31.28472 | 34.87015 | 3301 ft | 105 kts | 247° |
| 2026-05-06 19:48 | 31.28118 | 34.86254 | 3137 ft | 105 kts | 237° |
| 2026-05-06 19:48 | 31.27746 | 34.85580 | 3099 ft | 96 kts | 237° |
| 2026-05-06 19:49 | 31.27362 | 34.84906 | 2963 ft | 102 kts | 236° |
| 2026-05-06 19:49 | 31.26993 | 34.84237 | 2818 ft | 96 kts | 239° |
| 2026-05-06 19:49 | 31.26654 | 34.83575 | 2888 ft | 92 kts | 238° |
| 2026-05-06 19:49 | 31.26247 | 34.82740 | 3035 ft | 88 kts | 246° |
| 2026-05-06 19:50 | 31.26182 | 34.82279 | 3180 ft | 85 kts | 277° |
| 2026-05-06 19:50 | 31.26381 | 34.81631 | 3374 ft | 85 kts | 284° |
| 2026-05-06 19:50 | 31.26526 | 34.80939 | 3536 ft | 91 kts | 283° |
| 2026-05-06 19:50 | 31.26666 | 34.80196 | 3651 ft | 99 kts | 282° |
| 2026-05-06 19:51 | 31.26788 | 34.79381 | 3652 ft | 103 kts | 279° |
| 2026-05-06 19:51 | 31.26912 | 34.78497 | 3510 ft | 111 kts | 278° |
| 2026-05-06 19:51 | 31.27062 | 34.77705 | 3349 ft | 99 kts | 297° |
| 2026-05-06 19:51 | 31.27448 | 34.77019 | 2970 ft | 106 kts | 302° |
| 2026-05-06 19:52 | 31.27781 | 34.76260 | 2680 ft | 100 kts | 295° |
| 2026-05-06 19:52 | 31.28079 | 34.75526 | 2381 ft | 99 kts | 302° |
| 2026-05-06 19:52 | 31.28488 | 34.74913 | 2207 ft | 90 kts | 310° |
| 2026-05-06 19:52 | 31.28931 | 34.74402 | 2051 ft | 87 kts | 318° |
| 2026-05-06 19:53 | 31.29493 | 34.74199 | 1895 ft | 92 kts | 0° |
| 2026-05-06 19:53 | 31.30081 | 34.74443 | 1788 ft | 90 kts | 39° |
| 2026-05-06 19:53 | 31.30359 | 34.75055 | 1722 ft | 80 kts | 89° |
| 2026-05-06 19:53 | 31.30145 | 34.75696 | 1680 ft | 92 kts | 123° |
| 2026-05-06 19:54 | 31.29725 | 34.76249 | 1752 ft | 87 kts | 143° |
| 2026-05-06 19:54 | 31.29208 | 34.76636 | 1692 ft | 90 kts | 148° |
| 2026-05-06 19:54 | 31.28622 | 34.76918 | 1664 ft | 92 kts | 175° |
| 2026-05-06 19:54 | 31.28028 | 34.76702 | 1657 ft | 90 kts | 213° |
| 2026-05-06 19:55 | 31.27590 | 34.76210 | 1594 ft | 80 kts | 233° |
| 2026-05-06 19:55 | 31.27290 | 34.75671 | 1515 ft | 76 kts | 238° |
| 2026-05-06 19:55 | 31.27029 | 34.75175 | 1391 ft | 72 kts | 239° |
| 2026-05-06 19:55 | 31.26899 | 34.74617 | 1270 ft | 74 kts | 269° |
| 2026-05-06 19:56 | 31.27027 | 34.74043 | 1169 ft | 71 kts | 304° |
| 2026-05-06 19:56 | 31.27366 | 34.73680 | 1027 ft | 65 kts | 318° |
| 2026-05-06 19:56 | 31.27713 | 34.73315 | 907 ft | 68 kts | 318° |
| 2026-05-06 19:56 | 31.28066 | 34.72951 | 769 ft | 67 kts | 319° |
| 2026-05-06 19:57 | 31.28398 | 34.72601 | 659 ft | 54 kts | 318° |
| 2026-05-06 19:57 | 31.28560 | 34.72428 | 649 ft | 5 kts | 325° |
| 2026-05-06 19:57 | 31.28606 | 34.72376 | 647 ft | 15 kts | 318° |
| 2026-05-06 19:57 | 31.28658 | 34.72389 | 646 ft | 7 kts | 33° |
| 2026-05-06 19:58 | 31.28680 | 34.72419 | 646 ft | 0 kts | 61° |
| 2026-05-06 19:58 | 31.28681 | 34.72419 | 646 ft | 0 kts | 72° |